createdAt,value
2018-09-18T00:01:14.787Z,11.47
2018-09-18T00:03:42.353Z,12.00
2018-09-18T00:06:09.583Z,10.97
2018-09-18T00:08:36.894Z,10.87
2018-09-18T00:11:04.136Z,11.43
2018-09-18T00:13:31.498Z,12.83
2018-09-18T00:15:58.936Z,11.73
2018-09-18T00:18:26.182Z,12.13
2018-09-18T00:20:53.378Z,12.33
2018-09-18T00:23:20.658Z,11.50
2018-09-18T00:25:53.531Z,11.70
2018-09-18T00:28:20.847Z,12.50
2018-09-18T00:30:48.088Z,12.10
2018-09-18T00:33:15.337Z,11.90
2018-09-18T00:35:42.516Z,11.90
2018-09-18T00:38:10.885Z,11.77
2018-09-18T00:40:38.185Z,12.20
2018-09-18T00:43:05.402Z,12.70
2018-09-18T00:45:32.768Z,11.03
2018-09-18T00:48:02.078Z,11.93
2018-09-18T00:50:29.361Z,11.97
2018-09-18T00:52:56.939Z,12.53
2018-09-18T00:55:24.151Z,13.30
2018-09-18T00:57:51.352Z,13.23
2018-09-18T01:00:18.560Z,13.10
2018-09-18T01:02:45.756Z,12.53
2018-09-18T01:05:13.325Z,12.17
2018-09-18T01:07:40.576Z,12.23
2018-09-18T01:10:07.795Z,12.80
2018-09-18T01:12:35.358Z,12.80
2018-09-18T01:15:02.686Z,12.20
2018-09-18T01:17:29.919Z,12.37
2018-09-18T01:19:57.833Z,12.70
2018-09-18T01:22:25.113Z,13.03
2018-09-18T01:24:53.097Z,11.77
2018-09-18T01:27:20.330Z,11.90
2018-09-18T01:29:47.586Z,12.33
2018-09-18T01:32:14.785Z,12.27
2018-09-18T01:34:41.969Z,12.30
2018-09-18T01:37:09.412Z,11.97
2018-09-18T01:39:36.929Z,11.80
2018-09-18T01:42:04.184Z,13.50
2018-09-18T01:44:31.413Z,11.90
2018-09-18T01:46:58.694Z,12.23
2018-09-18T01:49:25.935Z,12.23
2018-09-18T01:51:53.086Z,12.93
2018-09-18T01:54:20.420Z,12.00
2018-09-18T01:56:48.313Z,12.50
2018-09-18T01:59:15.597Z,11.70
2018-09-18T02:01:42.827Z,13.00
2018-09-18T02:04:09.978Z,12.00
2018-09-18T02:06:37.220Z,12.30
2018-09-18T02:09:05.247Z,12.10
2018-09-18T02:11:32.467Z,11.40
2018-09-18T02:13:59.711Z,12.20
2018-09-18T02:16:26.844Z,11.23
2018-09-18T02:18:56.105Z,11.40
2018-09-18T02:21:31.131Z,11.07
2018-09-18T02:24:09.721Z,11.97
2018-09-18T02:26:47.594Z,13.87
2018-09-18T02:29:21.354Z,13.30
2018-09-18T02:31:53.125Z,12.60
2018-09-18T02:34:27.879Z,12.50
2018-09-18T02:36:55.667Z,12.90
2018-09-18T02:39:22.992Z,12.10
2018-09-18T02:41:50.220Z,12.33
2018-09-18T02:44:17.473Z,12.27
2018-09-18T02:46:44.670Z,12.00
2018-09-18T02:49:11.912Z,13.90
2018-09-18T02:51:39.134Z,12.00
2018-09-18T02:54:06.439Z,13.30
2018-09-18T02:56:33.676Z,14.00
2018-09-18T02:59:02.104Z,12.63
2018-09-18T03:01:30.434Z,13.53
2018-09-18T03:04:12.430Z,12.70
2018-09-18T03:06:50.568Z,13.10
2018-09-18T03:09:17.873Z,12.87
2018-09-18T03:11:45.094Z,13.77
2018-09-18T03:14:12.365Z,14.20
2018-09-18T03:16:39.640Z,13.37
2018-09-18T03:19:06.950Z,13.03
2018-09-18T03:21:34.084Z,13.77
2018-09-18T03:24:01.337Z,14.40
2018-09-18T03:26:28.589Z,14.47
2018-09-18T03:28:57.844Z,12.50
2018-09-18T03:31:25.064Z,13.43
2018-09-18T03:33:52.286Z,14.20
2018-09-18T03:36:19.575Z,13.40
2018-09-18T03:38:46.829Z,12.80
2018-09-18T03:41:14.079Z,13.73
2018-09-18T03:43:41.225Z,13.23
2018-09-18T03:46:08.492Z,13.83
2018-09-18T03:48:35.684Z,12.80
2018-09-18T03:51:03.060Z,12.27
2018-09-18T03:53:30.251Z,12.20
2018-09-18T03:55:57.408Z,12.47
2018-09-18T03:58:25.044Z,12.00
2018-09-18T04:00:52.220Z,13.20
2018-09-18T04:03:19.423Z,13.03
2018-09-18T04:05:46.606Z,13.90
2018-09-18T04:08:13.777Z,13.10
2018-09-18T04:10:40.973Z,13.73
2018-09-18T04:13:08.350Z,14.70
2018-09-18T04:15:36.117Z,13.67
2018-09-18T04:18:04.019Z,14.93
2018-09-18T04:20:31.236Z,14.37
2018-09-18T04:22:58.473Z,13.40
2018-09-18T04:25:25.789Z,13.03
2018-09-18T04:27:53.278Z,13.47
2018-09-18T04:30:20.607Z,13.47
2018-09-18T04:32:47.785Z,13.80
2018-09-18T04:35:14.950Z,15.27
2018-09-18T04:37:42.160Z,15.47
2018-09-18T04:40:09.354Z,14.63
2018-09-18T04:42:36.588Z,13.47
2018-09-18T04:45:04.329Z,12.70
2018-09-18T04:47:31.530Z,13.60
2018-09-18T04:49:59.141Z,15.07
2018-09-18T04:52:26.825Z,15.10
2018-09-18T04:54:54.174Z,14.40
2018-09-18T04:57:21.545Z,13.67
2018-09-18T04:59:48.820Z,13.90
2018-09-18T05:02:16.081Z,13.63
2018-09-18T05:04:43.473Z,13.57
2018-09-18T05:07:11.970Z,13.50
2018-09-18T05:09:39.264Z,18.13
2018-09-18T05:12:06.560Z,15.50
2018-09-18T05:14:33.809Z,14.63
2018-09-18T05:17:01.195Z,13.80
2018-09-18T05:19:29.529Z,14.47
2018-09-18T05:21:57.123Z,13.37
2018-09-18T05:24:26.350Z,14.50
2018-09-18T05:26:53.612Z,14.57
2018-09-18T05:29:20.841Z,18.23
2018-09-18T05:31:48.250Z,18.10
2018-09-18T05:34:15.754Z,16.97
2018-09-18T05:36:43.048Z,20.00
2018-09-18T05:39:11.432Z,17.33
2018-09-18T05:41:39.187Z,18.00
2018-09-18T05:44:06.549Z,15.87
2018-09-18T05:46:34.327Z,16.80
2018-09-18T05:49:01.521Z,16.30
2018-09-18T05:51:28.755Z,15.43
2018-09-18T05:53:56.032Z,16.70
2018-09-18T05:56:23.364Z,17.37
2018-09-18T05:58:50.705Z,18.10
2018-09-18T06:01:17.968Z,17.03
2018-09-18T06:03:48.368Z,18.13
2018-09-18T06:06:15.589Z,19.10
2018-09-18T06:08:42.902Z,17.77
2018-09-18T06:11:10.208Z,18.33
2018-09-18T06:13:37.506Z,16.43
2018-09-18T06:16:04.803Z,16.00
2018-09-18T06:18:32.009Z,16.70
2018-09-18T06:20:59.224Z,17.60
2018-09-18T06:23:26.576Z,19.83
2018-09-18T06:25:53.842Z,16.77
2018-09-18T06:28:21.155Z,19.23
2018-09-18T06:30:48.461Z,19.90
2018-09-18T06:33:15.726Z,16.70
2018-09-18T06:35:42.876Z,15.90
2018-09-18T06:38:10.862Z,16.60
2018-09-18T06:40:38.152Z,16.60
2018-09-18T06:43:05.940Z,15.53
2018-09-18T06:45:33.712Z,15.70
2018-09-18T06:48:01.243Z,17.20
2018-09-18T06:50:28.485Z,17.30
2018-09-18T06:52:56.302Z,18.23
2018-09-18T06:55:24.466Z,15.57
2018-09-18T06:57:53.140Z,16.00
2018-09-18T07:00:20.417Z,15.10
2018-09-18T07:02:47.670Z,15.80
2018-09-18T07:05:16.152Z,15.33
2018-09-18T07:07:43.522Z,16.00
2018-09-18T07:10:10.929Z,16.20
2018-09-18T07:12:38.630Z,15.83
2018-09-18T07:15:07.305Z,16.33
2018-09-18T07:17:34.618Z,15.27
2018-09-18T07:20:02.212Z,17.17
2018-09-18T07:22:29.748Z,14.80
2018-09-18T07:24:58.453Z,14.63
2018-09-18T07:27:25.792Z,15.43
2018-09-18T07:29:53.126Z,15.10
2018-09-18T07:32:20.393Z,15.33
2018-09-18T07:34:47.717Z,15.30
2018-09-18T07:37:15.747Z,14.47
2018-09-18T07:39:43.089Z,14.70
2018-09-18T07:42:10.424Z,14.87
2018-09-18T07:44:37.782Z,15.00
2018-09-18T07:47:05.827Z,14.20
2018-09-18T07:49:33.223Z,15.10
2018-09-18T07:52:02.160Z,15.27
2018-09-18T07:54:30.683Z,18.53
2018-09-18T07:56:58.062Z,16.30
2018-09-18T07:59:25.915Z,21.63
2018-09-18T08:01:55.380Z,17.13
2018-09-18T08:04:22.754Z,14.87
2018-09-18T08:06:50.113Z,14.47
2018-09-18T08:09:18.327Z,13.67
2018-09-18T08:11:45.908Z,14.67
2018-09-18T08:14:13.151Z,13.23
2018-09-18T08:16:40.388Z,13.80
2018-09-18T08:19:07.643Z,14.03
2018-09-18T08:21:34.923Z,12.60
2018-09-18T08:24:02.297Z,11.87
2018-09-18T08:26:30.625Z,12.87
2018-09-18T08:28:57.939Z,11.53
2018-09-18T08:31:25.240Z,12.10
2018-09-18T08:33:52.466Z,11.57
2018-09-18T08:36:24.366Z,12.47
2018-09-18T08:38:51.719Z,11.70
2018-09-18T08:41:18.968Z,12.60
2018-09-18T08:43:46.476Z,11.10
2018-09-18T08:46:13.711Z,11.67
2018-09-18T08:48:47.869Z,11.60
2018-09-18T08:51:15.868Z,10.90
2018-09-18T08:53:43.136Z,10.60
2018-09-18T08:56:11.791Z,10.67
2018-09-18T08:58:39.466Z,10.40
2018-09-18T09:01:06.940Z,11.43
2018-09-18T09:03:34.086Z,10.13
2018-09-18T09:06:01.474Z,10.53
2018-09-18T09:08:28.626Z,10.03
2018-09-18T09:10:55.928Z,10.73
2018-09-18T09:13:23.238Z,12.17
2018-09-18T09:15:50.415Z,11.07
2018-09-18T09:18:18.633Z,12.57
2018-09-18T09:20:45.991Z,10.43
2018-09-18T09:23:13.648Z,10.90
2018-09-18T09:25:40.945Z,11.00
2018-09-18T09:28:08.294Z,10.07
2018-09-18T09:30:35.500Z,9.80
2018-09-18T09:33:02.806Z,10.27
2018-09-18T09:35:30.033Z,10.10
2018-09-18T09:37:57.269Z,9.47
2018-09-18T09:40:24.492Z,9.50
2018-09-18T09:42:51.893Z,10.97
2018-09-18T09:45:19.053Z,10.00
2018-09-18T09:47:46.432Z,10.27
2018-09-18T09:50:14.464Z,10.07
2018-09-18T09:52:42.755Z,9.90
2018-09-18T09:55:09.988Z,10.43
2018-09-18T09:57:37.582Z,9.67
2018-09-18T10:00:05.857Z,10.60
2018-09-18T10:02:38.930Z,9.70
2018-09-18T10:05:06.804Z,9.90
2018-09-18T10:07:34.156Z,8.93
2018-09-18T10:10:01.396Z,10.17
2018-09-18T10:12:28.730Z,11.10
2018-09-18T10:14:56.050Z,10.00
2018-09-18T10:17:23.417Z,9.20
2018-09-18T10:19:50.644Z,9.63
2018-09-18T10:22:17.970Z,10.20
2018-09-18T10:24:45.321Z,10.30
2018-09-18T10:27:12.574Z,11.20
2018-09-18T10:29:39.881Z,10.60
2018-09-18T10:32:07.096Z,8.83
2018-09-18T10:34:34.331Z,9.70
2018-09-18T10:37:01.555Z,10.10
2018-09-18T10:39:29.782Z,10.50
2018-09-18T10:41:57.168Z,9.50
2018-09-18T10:44:24.409Z,10.40
2018-09-18T10:46:52.331Z,11.97
2018-09-18T10:49:20.347Z,9.90
2018-09-18T10:51:47.662Z,10.63
2018-09-18T10:54:14.965Z,10.37
2018-09-18T10:56:42.258Z,10.33
2018-09-18T10:59:09.486Z,9.27
2018-09-18T11:01:36.789Z,10.13
2018-09-18T11:04:04.227Z,11.10
2018-09-18T11:06:31.488Z,10.27
2018-09-18T11:09:00.813Z,9.37
2018-09-18T11:11:27.948Z,9.77
2018-09-18T11:13:55.542Z,10.07
2018-09-18T11:16:22.871Z,9.37
2018-09-18T11:18:50.160Z,9.00
2018-09-18T11:21:17.356Z,8.93
2018-09-18T11:23:44.813Z,10.47
2018-09-18T11:26:12.037Z,11.37
2018-09-18T11:28:39.398Z,9.63
2018-09-18T11:31:06.630Z,9.20
2018-09-18T11:33:33.837Z,9.03
2018-09-18T11:36:01.852Z,9.03
2018-09-18T11:38:30.126Z,9.00
2018-09-18T11:40:58.589Z,9.67
2018-09-18T11:43:25.876Z,9.13
2018-09-18T11:45:57.768Z,9.27
2018-09-18T11:48:24.945Z,8.20
2018-09-18T11:50:52.183Z,8.63
2018-09-18T11:53:19.672Z,8.80
2018-09-18T11:55:47.464Z,9.43
2018-09-18T11:58:14.897Z,9.17
2018-09-18T12:00:42.218Z,8.80
2018-09-18T12:03:09.499Z,9.17
2018-09-18T12:05:37.208Z,8.83
2018-09-18T12:08:04.929Z,8.80
2018-09-18T12:10:32.216Z,9.20
2018-09-18T12:13:00.436Z,8.80
2018-09-18T12:15:28.746Z,9.37
2018-09-18T12:17:56.032Z,9.83
2018-09-18T12:20:23.594Z,8.93
2018-09-18T12:22:50.980Z,8.70
2018-09-18T12:25:18.251Z,9.53
2018-09-18T12:27:45.554Z,8.80
2018-09-18T12:30:13.183Z,9.40
2018-09-18T12:32:41.408Z,9.40
2018-09-18T12:35:08.641Z,8.63
2018-09-18T12:37:35.912Z,9.60
2018-09-18T12:40:03.405Z,8.43
2018-09-18T12:42:31.134Z,9.50
2018-09-18T12:44:59.151Z,10.10
2018-09-18T12:47:28.375Z,8.47
2018-09-18T12:49:55.907Z,8.80
2018-09-18T12:52:23.952Z,9.50
2018-09-18T12:54:51.822Z,8.60
2018-09-18T12:57:20.046Z,9.07
2018-09-18T12:59:47.308Z,9.27
2018-09-18T13:02:14.589Z,9.10
2018-09-18T13:04:42.230Z,9.80
2018-09-18T13:07:13.759Z,9.00
2018-09-18T13:09:42.592Z,9.73
2018-09-18T13:12:11.992Z,9.20
2018-09-18T13:14:39.265Z,8.60
2018-09-18T13:17:06.599Z,8.70
2018-09-18T13:19:33.939Z,9.23
2018-09-18T13:22:01.250Z,8.23
2018-09-18T13:24:28.569Z,8.53
2018-09-18T13:26:55.825Z,8.83
2018-09-18T13:29:23.266Z,8.53
2018-09-18T13:31:50.507Z,8.47
2018-09-18T13:34:17.760Z,9.47
2018-09-18T13:36:45.118Z,8.60
2018-09-18T13:39:12.573Z,9.37
2018-09-18T13:41:40.106Z,8.87
2018-09-18T13:44:07.418Z,8.67
2018-09-18T13:46:34.792Z,8.77
2018-09-18T13:49:02.182Z,8.87
2018-09-18T13:51:30.716Z,9.77
2018-09-18T13:53:58.308Z,9.13
2018-09-18T13:56:25.618Z,9.03
2018-09-18T13:58:52.738Z,8.60
2018-09-18T14:01:20.059Z,8.80
2018-09-18T14:03:47.351Z,9.20
2018-09-18T14:06:14.629Z,8.63
2018-09-18T14:08:43.263Z,9.97
2018-09-18T14:11:10.638Z,8.33
2018-09-18T14:13:37.899Z,9.50
2018-09-18T14:16:05.313Z,8.53
2018-09-18T14:18:33.199Z,8.73
2018-09-18T14:21:00.777Z,8.73
2018-09-18T14:23:28.105Z,8.63
2018-09-18T14:25:57.118Z,9.00
2018-09-18T14:28:25.856Z,8.60
2018-09-18T14:30:54.127Z,8.30
2018-09-18T14:33:21.759Z,8.73
2018-09-18T14:35:48.975Z,8.80
2018-09-18T14:38:17.202Z,8.20
2018-09-18T14:40:45.523Z,8.20
2018-09-18T14:43:12.906Z,8.80
2018-09-18T14:45:40.223Z,8.17
2018-09-18T14:48:07.566Z,8.40
2018-09-18T14:50:35.044Z,8.70
2018-09-18T14:53:02.973Z,7.63
2018-09-18T14:55:30.208Z,8.53
2018-09-18T14:57:57.440Z,9.13
2018-09-18T15:00:24.664Z,8.17
2018-09-18T15:02:52.339Z,8.57
2018-09-18T15:05:20.046Z,8.77
2018-09-18T15:07:48.001Z,9.17
2018-09-18T15:10:15.258Z,8.57
2018-09-18T15:12:43.128Z,7.77
2018-09-18T15:15:11.125Z,7.80
2018-09-18T15:17:40.085Z,8.10
2018-09-18T15:20:07.472Z,8.07
2018-09-18T15:22:35.433Z,8.20
2018-09-18T15:25:02.786Z,7.90
2018-09-18T15:27:30.362Z,8.60
2018-09-18T15:29:57.670Z,8.77
2018-09-18T15:32:24.850Z,8.10
2018-09-18T15:34:52.309Z,7.70
2018-09-18T15:37:19.773Z,7.93
2018-09-18T15:39:47.137Z,8.53
2018-09-18T15:42:14.308Z,8.87
2018-09-18T15:44:41.626Z,9.33
2018-09-18T15:47:08.990Z,8.53
2018-09-18T15:49:36.244Z,8.07
2018-09-18T15:52:03.699Z,8.13
2018-09-18T15:54:30.931Z,7.50
2018-09-18T15:56:58.086Z,9.40
2018-09-18T15:59:29.982Z,7.97
2018-09-18T16:01:57.374Z,7.57
2018-09-18T16:04:25.325Z,8.37
2018-09-18T16:06:52.687Z,8.03
2018-09-18T16:09:20.054Z,7.23
2018-09-18T16:11:47.857Z,8.20
2018-09-18T16:14:15.110Z,7.80
2018-09-18T16:16:42.591Z,8.13
2018-09-18T16:19:11.673Z,8.30
2018-09-18T16:21:38.915Z,7.50
2018-09-18T16:24:07.860Z,7.60
2018-09-18T16:26:35.123Z,8.30
2018-09-18T16:29:02.464Z,8.30
2018-09-18T16:31:29.820Z,8.73
2018-09-18T16:33:57.179Z,8.37
2018-09-18T16:36:24.670Z,8.33
2018-09-18T16:38:52.134Z,8.23
2018-09-18T16:41:19.409Z,8.10
2018-09-18T16:43:46.821Z,7.97
2018-09-18T16:46:14.124Z,7.33
2018-09-18T16:48:42.131Z,7.73
2018-09-18T16:51:10.413Z,7.83
2018-09-18T16:53:37.667Z,7.60
2018-09-18T16:56:05.010Z,9.00
2018-09-18T16:58:32.359Z,8.57
2018-09-18T17:00:59.933Z,7.78
2018-09-18T17:03:27.387Z,8.40
2018-09-18T17:05:54.719Z,8.10
2018-09-18T17:08:21.942Z,8.27
2018-09-18T17:10:49.764Z,8.90
2018-09-18T17:13:17.033Z,8.37
2018-09-18T17:15:44.426Z,8.40
2018-09-18T17:18:11.719Z,9.13
2018-09-18T17:20:38.993Z,8.50
2018-09-18T17:23:06.235Z,9.03
2018-09-18T17:25:33.530Z,10.10
2018-09-18T17:28:00.816Z,9.40
2018-09-18T17:30:28.041Z,10.10
2018-09-18T17:32:55.464Z,9.10
2018-09-18T17:35:22.812Z,10.47
2018-09-18T17:37:50.135Z,9.57
2018-09-18T17:40:17.677Z,9.43
2018-09-18T17:42:45.536Z,10.10
2018-09-18T17:45:12.809Z,10.60
2018-09-18T17:47:40.022Z,10.60
2018-09-18T17:50:07.119Z,12.20
2018-09-18T17:52:34.325Z,9.87
2018-09-18T17:55:05.607Z,10.90
2018-09-18T17:57:33.064Z,10.20
2018-09-18T18:00:00.309Z,10.17
2018-09-18T18:02:27.543Z,10.70
2018-09-18T18:04:54.877Z,12.30
2018-09-18T18:07:22.225Z,11.17
2018-09-18T18:09:50.241Z,11.23
2018-09-18T18:12:17.964Z,9.70
2018-09-18T18:14:45.568Z,10.53
2018-09-18T18:17:12.941Z,10.67
2018-09-18T18:19:40.228Z,11.80
2018-09-18T18:22:07.527Z,9.53
2018-09-18T18:24:36.591Z,11.40
2018-09-18T18:27:03.987Z,9.67
2018-09-18T18:29:31.497Z,10.10
2018-09-18T18:31:58.983Z,10.13
2018-09-18T18:34:26.253Z,10.63
2018-09-18T18:36:53.659Z,10.30
2018-09-18T18:39:22.207Z,10.27
2018-09-18T18:41:49.995Z,10.97
2018-09-18T18:46:55.792Z,10.20
2018-09-18T18:49:22.984Z,11.27
2018-09-18T18:51:50.989Z,11.17
2018-09-18T18:54:18.567Z,9.60
2018-09-18T18:56:47.946Z,11.30
2018-09-18T18:59:15.173Z,10.30
2018-09-18T19:01:42.629Z,10.00
2018-09-18T19:04:10.912Z,10.53
2018-09-18T19:06:38.424Z,10.63
2018-09-18T19:09:06.549Z,10.20
2018-09-18T19:11:34.700Z,10.10
2018-09-18T19:14:02.229Z,10.87
2018-09-18T19:16:32.581Z,10.97
2018-09-18T19:19:04.899Z,10.90
2018-09-18T19:21:32.093Z,10.47
2018-09-18T19:24:00.526Z,9.17
2018-09-18T19:26:28.237Z,10.83
2018-09-18T19:28:55.623Z,12.20
2018-09-18T19:31:22.953Z,10.77
2018-09-18T19:33:50.185Z,9.87
2018-09-18T19:36:17.487Z,10.93
2018-09-18T19:38:44.785Z,10.50
2018-09-18T19:41:14.705Z,12.50
2018-09-18T19:43:41.940Z,11.20
2018-09-18T19:46:09.177Z,11.23
2018-09-18T19:48:36.331Z,10.80
2018-09-18T19:51:03.652Z,10.23
2018-09-18T19:53:30.953Z,10.13
2018-09-18T19:55:58.191Z,10.93
2018-09-18T19:58:26.539Z,10.43
2018-09-18T20:00:53.826Z,10.57
2018-09-18T20:03:21.165Z,10.73
2018-09-18T20:05:48.397Z,10.30
2018-09-18T20:08:15.660Z,10.37
2018-09-18T20:10:43.108Z,11.07
2018-09-18T20:13:10.376Z,10.30
2018-09-18T20:15:37.694Z,10.90
2018-09-18T20:18:04.945Z,11.00
2018-09-18T20:20:32.212Z,10.17
2018-09-18T20:22:59.435Z,10.40
2018-09-18T20:25:28.774Z,9.90
2018-09-18T20:27:56.532Z,10.90
2018-09-18T20:30:23.761Z,10.90
2018-09-18T20:32:51.043Z,10.50
2018-09-18T20:35:19.161Z,10.50
2018-09-18T20:37:46.501Z,10.70
2018-09-18T20:40:13.732Z,11.50
2018-09-18T20:42:40.975Z,10.77
2018-09-18T20:45:08.425Z,10.83
2018-09-18T20:47:36.405Z,11.17
2018-09-18T20:50:03.750Z,10.77
2018-09-18T20:52:30.969Z,11.37
2018-09-18T20:54:58.695Z,10.60
2018-09-18T20:57:26.260Z,11.03
2018-09-18T20:59:53.676Z,10.47
2018-09-18T21:02:21.247Z,11.70
2018-09-18T21:04:49.949Z,11.80
2018-09-18T21:07:17.833Z,10.33
2018-09-18T21:09:45.355Z,10.83
2018-09-18T21:12:13.014Z,10.97
2018-09-18T21:14:41.215Z,11.77
2018-09-18T21:17:09.837Z,10.50
2018-09-18T21:19:37.665Z,11.20
2018-09-18T21:22:07.737Z,14.10
2018-09-18T21:24:36.846Z,11.90
2018-09-18T21:27:04.897Z,16.17
2018-09-18T21:29:32.172Z,13.00
2018-09-18T21:32:01.339Z,13.47
2018-09-18T21:34:29.646Z,13.40
2018-09-18T21:36:58.488Z,12.27
2018-09-18T21:39:26.049Z,12.60
2018-09-18T21:41:53.525Z,11.63
2018-09-18T21:44:20.761Z,12.20
2018-09-18T21:46:49.094Z,12.73
2018-09-18T21:49:16.331Z,12.87
2018-09-18T21:51:43.552Z,10.87
2018-09-18T21:54:10.779Z,11.33
2018-09-18T21:56:38.028Z,11.93
2018-09-18T21:59:05.234Z,11.13
2018-09-18T22:01:32.555Z,11.07
2018-09-18T22:03:59.818Z,11.27
2018-09-18T22:06:27.005Z,11.23
2018-09-18T22:08:54.221Z,10.57
2018-09-18T22:11:21.727Z,11.93
2018-09-18T22:13:48.992Z,10.83
2018-09-18T22:16:16.468Z,10.50
2018-09-18T22:18:43.595Z,10.70
2018-09-18T22:21:11.378Z,10.30
2018-09-18T22:23:38.655Z,11.20
2018-09-18T22:26:05.890Z,10.33
2018-09-18T22:28:33.079Z,10.87
2018-09-18T22:31:00.185Z,11.30
2018-09-18T22:33:27.358Z,10.87
2018-09-18T22:35:54.499Z,10.43
2018-09-18T22:38:21.664Z,11.67
2018-09-18T22:40:48.935Z,11.03
2018-09-18T22:43:16.100Z,11.50
2018-09-18T22:45:43.393Z,11.40
2018-09-18T22:48:10.619Z,12.00
2018-09-18T22:50:37.738Z,11.90
2018-09-18T22:53:04.973Z,11.40
2018-09-18T22:55:32.143Z,10.03
2018-09-18T22:57:59.340Z,11.50
2018-09-18T23:00:26.545Z,10.93
2018-09-18T23:02:53.814Z,11.10
2018-09-18T23:05:20.990Z,11.43
2018-09-18T23:07:48.169Z,12.10
2018-09-18T23:10:15.374Z,11.03
2018-09-18T23:12:42.574Z,11.23
2018-09-18T23:15:09.866Z,11.43
2018-09-18T23:17:37.011Z,10.40
2018-09-18T23:20:04.245Z,11.07
2018-09-18T23:22:31.660Z,11.53
2018-09-18T23:26:02.226Z,10.90
2018-09-18T23:28:29.315Z,11.50
2018-09-18T23:30:56.425Z,11.00
2018-09-18T23:33:23.940Z,10.90
2018-09-18T23:35:51.140Z,10.90
2018-09-18T23:38:18.325Z,12.00
2018-09-18T23:40:45.500Z,12.00
2018-09-18T23:43:12.705Z,12.00
2018-09-18T23:45:39.887Z,11.13
2018-09-18T23:48:07.159Z,12.77
2018-09-18T23:50:34.370Z,11.80
2018-09-18T23:53:01.513Z,13.07
2018-09-18T23:55:29.448Z,12.80
2018-09-18T23:57:56.598Z,12.20
